createdAt,value
2024-04-26T00:01:08.531Z,4.40
2024-04-26T00:03:38.822Z,4.40
2024-04-26T00:06:09.352Z,4.40
2024-04-26T00:08:42.072Z,4.40
2024-04-26T00:11:12.404Z,4.40
2024-04-26T00:13:45.116Z,4.40
2024-04-26T00:16:15.149Z,4.40
2024-04-26T00:18:45.188Z,4.30
2024-04-26T00:21:15.188Z,4.30
2024-04-26T00:23:45.275Z,4.30
2024-04-26T00:26:15.303Z,4.30
2024-04-26T00:28:47.983Z,4.30
2024-04-26T00:31:21.943Z,4.20
2024-04-26T00:33:52.107Z,4.30
2024-04-26T00:36:22.208Z,4.20
2024-04-26T00:38:52.333Z,4.10
2024-04-26T00:41:22.478Z,4.00
2024-04-26T00:44:01.936Z,3.90
2024-04-26T00:46:32.126Z,3.80
2024-04-26T00:49:02.317Z,3.70
2024-04-26T00:51:32.620Z,3.70
2024-04-26T00:54:03.665Z,3.60
2024-04-26T00:56:35.144Z,3.70
2024-04-26T00:59:08.812Z,3.70
2024-04-26T01:01:39.308Z,3.70
2024-04-26T01:04:09.463Z,3.70
2024-04-26T01:06:39.695Z,3.80
2024-04-26T01:09:10.018Z,3.80
2024-04-26T01:11:40.418Z,3.80
2024-04-26T01:14:13.127Z,3.80
2024-04-26T01:16:43.206Z,4.00
2024-04-26T01:19:15.013Z,4.00
2024-04-26T01:21:45.754Z,4.10
2024-04-26T01:24:16.093Z,4.20
2024-04-26T01:26:46.365Z,4.20
2024-04-26T01:29:16.424Z,4.30
2024-04-26T01:31:46.522Z,4.30
2024-04-26T01:34:16.646Z,4.40
2024-04-26T01:36:46.660Z,4.30
2024-04-26T01:39:19.335Z,4.30
2024-04-26T01:41:49.357Z,4.30
2024-04-26T01:44:19.808Z,4.40
2024-04-26T01:46:49.896Z,4.50
2024-04-26T01:49:19.964Z,4.40
2024-04-26T01:51:49.941Z,4.30
2024-04-26T01:54:22.561Z,4.30
2024-04-26T01:56:49.923Z,4.20
2024-04-26T01:59:19.911Z,4.20
2024-04-26T02:01:47.415Z,4.20
2024-04-26T02:04:17.464Z,4.20
2024-04-26T02:06:44.852Z,4.10
2024-04-26T02:09:14.931Z,4.10
2024-04-26T02:11:45.085Z,4.10
2024-04-26T02:14:15.213Z,4.10
2024-04-26T02:16:45.254Z,4.20
2024-04-26T02:19:12.732Z,4.20
2024-04-26T02:21:42.810Z,4.20
2024-04-26T02:24:12.938Z,4.30
2024-04-26T02:26:43.395Z,4.30
2024-04-26T02:29:16.070Z,4.30
2024-04-26T02:31:46.126Z,4.30
2024-04-26T02:34:16.944Z,4.30
2024-04-26T02:36:47.102Z,4.30
2024-04-26T02:39:17.142Z,4.20
2024-04-26T02:41:47.146Z,4.10
2024-04-26T02:44:19.795Z,4.20
2024-04-26T02:46:49.856Z,4.20
2024-04-26T02:49:19.927Z,4.20
2024-04-26T02:51:49.911Z,4.30
2024-04-26T02:54:20.018Z,4.30
2024-04-26T02:56:50.124Z,4.20
2024-04-26T02:59:23.295Z,4.20
2024-04-26T03:01:53.432Z,4.20
2024-04-26T03:04:23.691Z,4.20
2024-04-26T03:06:53.811Z,4.30
2024-04-26T03:09:23.827Z,4.30
2024-04-26T03:11:54.626Z,4.20
2024-04-26T03:14:27.535Z,4.10
2024-04-26T03:16:57.656Z,4.00
2024-04-26T03:19:28.660Z,3.90
2024-04-26T03:21:58.663Z,3.90
2024-04-26T03:24:28.683Z,3.90
2024-04-26T03:26:58.714Z,3.90
2024-04-26T03:29:31.473Z,3.80
2024-04-26T03:32:01.618Z,3.90
2024-04-26T03:34:31.637Z,3.90
2024-04-26T03:37:01.688Z,4.00
2024-04-26T03:39:31.733Z,4.20
2024-04-26T03:42:01.927Z,4.20
2024-04-26T03:44:34.655Z,4.30
2024-04-26T03:47:04.631Z,4.30
2024-04-26T03:49:35.059Z,4.40
2024-04-26T03:52:02.526Z,4.40
2024-04-26T03:54:32.582Z,4.40
2024-04-26T03:57:02.715Z,4.40
2024-04-26T03:59:35.569Z,4.40
2024-04-26T04:02:05.582Z,4.50
2024-04-26T04:04:35.644Z,4.50
2024-04-26T04:07:05.728Z,4.60
2024-04-26T04:09:35.757Z,4.60
2024-04-26T04:12:06.067Z,4.50
2024-04-26T04:14:38.835Z,4.50
2024-04-26T04:17:09.019Z,4.40
2024-04-26T04:19:39.114Z,4.30
2024-04-26T04:22:09.066Z,4.30
2024-04-26T04:24:39.170Z,4.20
2024-04-26T04:27:09.519Z,4.30
2024-04-26T04:29:42.356Z,4.30
2024-04-26T04:32:14.441Z,4.30
2024-04-26T04:34:44.944Z,4.30
2024-04-26T04:37:15.147Z,4.30
2024-04-26T04:39:45.506Z,4.30
2024-04-26T04:42:15.584Z,4.30
2024-04-26T04:44:48.288Z,4.20
2024-04-26T04:47:18.411Z,4.20
2024-04-26T04:49:48.490Z,4.10
2024-04-26T04:52:18.542Z,4.00
2024-04-26T04:54:48.519Z,4.20
2024-04-26T04:57:18.609Z,4.30
2024-04-26T04:59:51.295Z,4.40
2024-04-26T05:02:21.356Z,4.50
2024-04-26T05:04:51.497Z,4.50
2024-04-26T05:07:21.535Z,4.60
2024-04-26T05:09:51.883Z,4.60
2024-04-26T05:12:22.062Z,4.70
2024-04-26T05:14:54.825Z,4.70
2024-04-26T05:17:25.879Z,4.70
2024-04-26T05:19:55.877Z,4.70
2024-04-26T05:22:25.875Z,4.80
2024-04-26T05:24:56.400Z,4.90
2024-04-26T05:27:26.466Z,5.10
2024-04-26T05:29:59.214Z,5.10
2024-04-26T05:32:29.457Z,5.20
2024-04-26T05:34:59.480Z,5.50
2024-04-26T05:37:29.477Z,5.70
2024-04-26T05:39:59.564Z,5.90
2024-04-26T05:42:29.658Z,6.20
2024-04-26T05:45:02.539Z,6.30
2024-04-26T05:47:32.998Z,6.70
2024-04-26T05:50:03.076Z,6.90
2024-04-26T05:52:33.145Z,6.70
2024-04-26T05:55:03.123Z,6.40
2024-04-26T05:57:33.151Z,6.30
2024-04-26T06:00:06.005Z,6.30
2024-04-26T06:02:36.263Z,6.40
2024-04-26T06:05:10.945Z,6.50
2024-04-26T06:07:40.958Z,6.60
2024-04-26T06:10:11.085Z,6.80
2024-04-26T06:12:41.604Z,7.00
2024-04-26T06:15:14.346Z,7.20
2024-04-26T06:17:44.588Z,7.20
2024-04-26T06:20:16.007Z,7.10
2024-04-26T06:22:45.998Z,6.80
2024-04-26T06:25:16.862Z,6.70
2024-04-26T06:27:47.012Z,6.90
2024-04-26T06:30:19.830Z,6.90
2024-04-26T06:32:50.134Z,6.70
2024-04-26T06:35:20.179Z,6.60
2024-04-26T06:37:50.174Z,6.90
2024-04-26T06:40:20.131Z,7.00
2024-04-26T06:42:50.115Z,7.30
2024-04-26T06:45:22.786Z,7.70
2024-04-26T06:47:53.223Z,7.90
2024-04-26T06:50:23.410Z,8.20
2024-04-26T06:52:53.498Z,8.40
2024-04-26T06:55:23.559Z,8.90
2024-04-26T06:57:53.619Z,9.70
2024-04-26T07:00:26.625Z,10.40
2024-04-26T07:02:58.161Z,11.10
2024-04-26T07:05:28.542Z,11.80
2024-04-26T07:07:58.612Z,12.10
2024-04-26T07:10:28.641Z,12.10
2024-04-26T07:12:58.632Z,12.30
2024-04-26T07:15:31.285Z,12.90
2024-04-26T07:18:01.433Z,12.90
2024-04-26T07:20:31.962Z,13.40
2024-04-26T07:23:03.886Z,14.00
2024-04-26T07:25:34.556Z,15.20
2024-04-26T07:28:04.517Z,16.30
2024-04-26T07:30:37.139Z,16.50
2024-04-26T07:33:08.511Z,16.40
2024-04-26T07:35:38.775Z,16.90
2024-04-26T07:38:11.886Z,17.10
2024-04-26T07:40:45.024Z,17.00
2024-04-26T07:43:18.152Z,16.90
2024-04-26T07:45:50.931Z,16.40
2024-04-26T07:48:21.143Z,15.30
2024-04-26T07:50:51.676Z,15.80
2024-04-26T07:53:21.737Z,16.70
2024-04-26T07:55:51.867Z,17.90
2024-04-26T07:58:22.027Z,18.70
2024-04-26T08:00:55.669Z,19.90
2024-04-26T08:03:26.002Z,21.50
2024-04-26T08:05:56.521Z,22.20
2024-04-26T08:08:26.611Z,21.80
2024-04-26T08:10:56.829Z,21.30
2024-04-26T08:13:26.836Z,21.60
2024-04-26T08:15:59.788Z,21.90
2024-04-26T08:18:30.003Z,21.30
2024-04-26T08:21:00.118Z,21.00
2024-04-26T08:23:30.439Z,20.70
2024-04-26T08:26:04.634Z,20.60
2024-04-26T08:28:34.848Z,21.20
2024-04-26T08:31:07.713Z,22.40
2024-04-26T08:33:37.875Z,23.20
2024-04-26T08:36:09.036Z,23.70
2024-04-26T08:38:39.672Z,24.20
2024-04-26T08:41:09.924Z,24.50
2024-04-26T08:43:40.865Z,24.70
2024-04-26T08:46:14.112Z,24.50
2024-04-26T08:48:45.186Z,23.80
2024-04-26T08:51:17.432Z,23.30
2024-04-26T08:53:47.697Z,22.50
2024-04-26T08:56:22.080Z,21.90
2024-04-26T08:58:53.964Z,21.10
2024-04-26T09:01:27.314Z,20.30
2024-04-26T09:03:57.962Z,19.90
2024-04-26T09:06:35.181Z,19.70
2024-04-26T09:09:05.771Z,19.70
2024-04-26T09:11:36.016Z,19.90
2024-04-26T09:14:06.034Z,20.20
2024-04-26T09:16:41.284Z,20.40
2024-04-26T09:19:11.618Z,20.30
2024-04-26T09:21:41.662Z,20.20
2024-04-26T09:24:11.873Z,20.00
2024-04-26T09:26:44.196Z,19.90
2024-04-26T09:29:15.333Z,20.00
2024-04-26T09:31:48.020Z,19.80
2024-04-26T09:34:19.404Z,19.90
2024-04-26T09:36:49.917Z,19.80
2024-04-26T09:39:20.746Z,19.80
2024-04-26T09:41:51.205Z,19.70
2024-04-26T09:44:23.549Z,19.80
2024-04-26T09:46:58.274Z,19.90
2024-04-26T09:49:28.635Z,19.90
2024-04-26T09:52:01.189Z,20.10
2024-04-26T09:54:32.256Z,20.20
2024-04-26T09:57:02.399Z,20.30
2024-04-26T09:59:33.226Z,20.80
2024-04-26T10:02:12.822Z,21.60
2024-04-26T10:04:44.362Z,22.90
2024-04-26T10:07:25.781Z,24.50
2024-04-26T10:10:00.916Z,25.40
2024-04-26T10:12:31.869Z,25.60
2024-04-26T10:15:13.356Z,25.20
2024-04-26T10:17:55.971Z,25.20
2024-04-26T10:20:28.302Z,25.50
2024-04-26T10:23:06.400Z,26.40
2024-04-26T10:25:36.755Z,27.20
2024-04-26T10:28:13.907Z,28.00
2024-04-26T10:30:48.508Z,28.70
2024-04-26T10:33:23.701Z,29.30
2024-04-26T10:35:55.047Z,29.70
2024-04-26T10:38:24.903Z,30.40
2024-04-26T10:40:55.133Z,30.20
2024-04-26T10:43:26.670Z,29.70
2024-04-26T10:45:57.957Z,29.80
2024-04-26T10:48:33.726Z,29.60
2024-04-26T10:51:06.266Z,29.80
2024-04-26T10:53:37.384Z,29.90
2024-04-26T10:56:07.803Z,29.50
2024-04-26T10:58:40.995Z,29.20
2024-04-26T11:01:21.500Z,28.80
2024-04-26T11:04:02.598Z,28.50
2024-04-26T11:06:34.660Z,27.90
2024-04-26T11:09:12.699Z,27.40
2024-04-26T11:11:44.148Z,27.30
2024-04-26T11:14:14.206Z,27.20
2024-04-26T11:16:45.018Z,27.70
2024-04-26T11:19:17.967Z,28.30
2024-04-26T11:21:48.177Z,28.50
2024-04-26T11:24:18.225Z,28.30
2024-04-26T11:26:48.298Z,28.10
2024-04-26T11:29:19.687Z,27.70
2024-04-26T11:31:50.039Z,27.20
2024-04-26T11:34:22.841Z,26.90
2024-04-26T11:36:53.310Z,26.90
2024-04-26T11:39:23.368Z,26.90
2024-04-26T11:41:53.388Z,27.00
2024-04-26T11:44:23.460Z,26.80
2024-04-26T11:46:53.498Z,26.60
2024-04-26T11:49:27.044Z,26.50
2024-04-26T11:52:00.058Z,26.50
2024-04-26T11:54:30.155Z,26.10
2024-04-26T11:57:02.858Z,25.90
2024-04-26T11:59:35.233Z,25.40
2024-04-26T12:02:05.226Z,25.00
2024-04-26T12:04:38.569Z,24.70
2024-04-26T12:07:09.161Z,24.00
2024-04-26T12:09:39.202Z,23.80
2024-04-26T12:12:09.757Z,23.50
2024-04-26T12:14:41.515Z,23.30
2024-04-26T12:17:11.616Z,23.60
2024-04-26T12:19:44.352Z,23.90
2024-04-26T12:22:14.406Z,24.30
2024-04-26T12:24:47.754Z,24.20
2024-04-26T12:27:18.583Z,24.40
2024-04-26T12:29:46.870Z,24.20
2024-04-26T12:32:16.992Z,24.10
2024-04-26T12:34:49.956Z,24.10
2024-04-26T12:37:20.069Z,23.90
2024-04-26T12:39:49.954Z,23.80
2024-04-26T12:42:20.483Z,23.50
2024-04-26T12:44:50.539Z,23.40
2024-04-26T12:47:22.359Z,23.40
2024-04-26T12:49:55.057Z,23.30
2024-04-26T12:52:25.056Z,23.30
2024-04-26T12:54:55.858Z,23.20
2024-04-26T12:57:28.854Z,22.90
2024-04-26T12:59:58.982Z,22.70
2024-04-26T13:02:29.131Z,23.00
2024-04-26T13:05:01.962Z,23.10
2024-04-26T13:07:33.899Z,23.10
2024-04-26T13:10:04.222Z,23.10
2024-04-26T13:12:39.609Z,23.00
2024-04-26T13:15:11.126Z,23.10
2024-04-26T13:17:41.543Z,23.40
2024-04-26T13:20:14.574Z,23.80
2024-04-26T13:22:44.753Z,24.00
2024-04-26T13:25:15.681Z,24.10
2024-04-26T13:27:45.752Z,24.00
2024-04-26T13:30:16.147Z,23.90
2024-04-26T13:32:48.675Z,23.50
2024-04-26T13:35:23.255Z,23.20
2024-04-26T13:37:53.905Z,23.20
2024-04-26T13:40:24.261Z,23.00
2024-04-26T13:42:54.278Z,23.00
2024-04-26T13:45:26.642Z,22.90
2024-04-26T13:47:56.929Z,22.90
2024-04-26T13:50:29.884Z,22.90
2024-04-26T13:53:00.314Z,22.80
2024-04-26T13:55:30.380Z,22.80
2024-04-26T13:58:00.427Z,23.00
2024-04-26T14:00:30.491Z,23.00
2024-04-26T14:03:00.760Z,22.90
2024-04-26T14:05:33.744Z,22.90
2024-04-26T14:08:03.953Z,22.80
2024-04-26T14:10:34.767Z,22.80
2024-04-26T14:13:02.170Z,22.80
2024-04-26T14:15:32.255Z,22.80
2024-04-26T14:18:02.597Z,22.80
2024-04-26T14:20:35.384Z,22.70
2024-04-26T14:23:07.041Z,22.60
2024-04-26T14:25:37.426Z,22.30
2024-04-26T14:28:07.971Z,22.10
2024-04-26T14:30:38.186Z,21.90
2024-04-26T14:33:08.513Z,21.80
2024-04-26T14:35:41.382Z,21.60
2024-04-26T14:38:12.653Z,21.60
2024-04-26T14:40:42.630Z,21.60
2024-04-26T14:43:13.447Z,21.50
2024-04-26T14:45:43.583Z,21.50
2024-04-26T14:48:13.848Z,21.40
2024-04-26T14:50:46.700Z,21.40
2024-04-26T14:53:16.879Z,21.50
2024-04-26T14:55:46.996Z,21.20
2024-04-26T14:58:18.117Z,21.10
2024-04-26T15:00:48.207Z,21.00
2024-04-26T15:03:18.795Z,21.00
2024-04-26T15:05:51.511Z,20.90
2024-04-26T15:08:22.896Z,20.80
2024-04-26T15:10:52.950Z,20.50
2024-04-26T15:13:23.183Z,20.50
2024-04-26T15:15:53.448Z,20.40
2024-04-26T15:18:24.402Z,20.40
2024-04-26T15:20:57.346Z,20.30
2024-04-26T15:23:27.354Z,20.10
2024-04-26T15:25:57.664Z,19.90
2024-04-26T15:28:27.789Z,19.80
2024-04-26T15:30:57.870Z,19.70
2024-04-26T15:33:28.046Z,19.60
2024-04-26T15:36:00.951Z,19.40
2024-04-26T15:38:31.079Z,19.30
2024-04-26T15:41:01.110Z,19.30
2024-04-26T15:43:31.221Z,19.30
2024-04-26T15:46:01.276Z,19.20
2024-04-26T15:48:31.380Z,19.10
2024-04-26T15:51:04.678Z,19.00
2024-04-26T15:53:34.887Z,19.00
2024-04-26T15:56:05.021Z,18.90
2024-04-26T15:58:37.862Z,18.90
2024-04-26T16:01:08.130Z,18.90
2024-04-26T16:03:38.182Z,18.80
2024-04-26T16:06:11.132Z,18.80
2024-04-26T16:08:41.619Z,18.80
2024-04-26T16:11:16.245Z,18.90
2024-04-26T16:13:46.854Z,18.80
2024-04-26T16:16:19.702Z,18.80
2024-04-26T16:18:50.939Z,18.70
2024-04-26T16:21:25.135Z,18.70
2024-04-26T16:23:55.238Z,18.50
2024-04-26T16:26:26.549Z,18.40
2024-04-26T16:28:56.656Z,18.30
2024-04-26T16:31:29.248Z,18.20
2024-04-26T16:33:59.283Z,18.10
2024-04-26T16:36:33.281Z,18.00
2024-04-26T16:39:07.045Z,17.80
2024-04-26T16:41:37.323Z,17.60
2024-04-26T16:44:07.781Z,17.40
2024-04-26T16:46:39.390Z,17.30
2024-04-26T16:49:09.773Z,17.10
2024-04-26T16:51:45.223Z,16.90
2024-04-26T16:54:15.320Z,16.80
2024-04-26T16:56:45.438Z,16.70
2024-04-26T16:59:15.686Z,16.60
2024-04-26T17:01:45.800Z,16.50
2024-04-26T17:04:14.433Z,16.40
2024-04-26T17:06:47.482Z,16.40
2024-04-26T17:09:17.940Z,16.40
2024-04-26T17:11:48.082Z,16.30
2024-04-26T17:14:18.351Z,16.20
2024-04-26T17:16:48.705Z,16.10
2024-04-26T17:19:18.792Z,16.00
2024-04-26T17:21:51.402Z,15.90
2024-04-26T17:24:21.451Z,15.80
2024-04-26T17:26:51.473Z,15.70
2024-04-26T17:29:21.475Z,15.60
2024-04-26T17:31:51.553Z,15.40
2024-04-26T17:34:21.702Z,15.20
2024-04-26T17:36:54.408Z,15.10
2024-04-26T17:39:24.447Z,15.00
2024-04-26T17:41:54.417Z,14.80
2024-04-26T17:44:25.072Z,14.70
2024-04-26T17:46:55.638Z,14.60
2024-04-26T17:49:25.863Z,14.40
2024-04-26T17:52:03.081Z,14.30
2024-04-26T17:54:35.308Z,14.20
2024-04-26T17:57:06.803Z,14.10
2024-04-26T17:59:36.615Z,14.00
2024-04-26T18:02:06.645Z,13.90
2024-04-26T18:04:36.809Z,13.70
2024-04-26T18:07:10.030Z,13.60
2024-04-26T18:09:40.110Z,13.50
2024-04-26T18:12:12.613Z,13.40
2024-04-26T18:14:42.767Z,13.30
2024-04-26T18:17:12.831Z,13.20
2024-04-26T18:19:42.942Z,13.10
2024-04-26T18:22:15.684Z,13.00
2024-04-26T18:24:51.012Z,12.90
2024-04-26T18:27:21.511Z,12.70
2024-04-26T18:29:48.937Z,12.60
2024-04-26T18:32:18.921Z,12.50
2024-04-26T18:34:49.057Z,12.40
2024-04-26T18:37:21.814Z,12.30
2024-04-26T18:39:51.959Z,12.20
2024-04-26T18:42:21.521Z,12.10
2024-04-26T18:44:51.592Z,12.00
2024-04-26T18:47:21.722Z,11.90
2024-04-26T18:49:51.921Z,11.80
2024-04-26T18:52:24.812Z,11.80
2024-04-26T18:54:54.879Z,11.70
2024-04-26T18:57:24.991Z,11.60
2024-04-26T18:59:55.032Z,11.60
2024-04-26T19:02:25.077Z,11.50
2024-04-26T19:04:56.720Z,11.40
2024-04-26T19:07:29.514Z,11.30
2024-04-26T19:10:00.048Z,11.30
2024-04-26T19:12:30.187Z,11.20
2024-04-26T19:15:01.236Z,11.10
2024-04-26T19:17:33.556Z,11.10
2024-04-26T19:20:04.984Z,11.00
2024-04-26T19:22:37.794Z,10.90
2024-04-26T19:25:08.407Z,10.80
2024-04-26T19:27:38.449Z,10.70
2024-04-26T19:30:13.288Z,10.70
2024-04-26T19:32:43.403Z,10.60
2024-04-26T19:35:13.451Z,10.40
2024-04-26T19:37:46.213Z,10.30
2024-04-26T19:40:16.410Z,10.30
2024-04-26T19:42:47.097Z,10.20
2024-04-26T19:45:17.313Z,10.10
2024-04-26T19:47:47.359Z,10.10
2024-04-26T19:50:17.602Z,10.00
2024-04-26T19:53:05.974Z,9.90
2024-04-26T19:56:00.001Z,9.90
2024-04-26T19:58:30.109Z,9.80
2024-04-26T20:01:00.438Z,9.70
2024-04-26T20:03:30.673Z,9.60
2024-04-26T20:06:01.027Z,9.60
2024-04-26T20:08:34.581Z,9.50
2024-04-26T20:11:07.121Z,9.50
2024-04-26T20:13:37.240Z,9.40
2024-04-26T20:16:07.973Z,9.40
2024-04-26T20:18:40.016Z,9.30
2024-04-26T20:21:12.031Z,9.20
2024-04-26T20:23:44.850Z,9.10
2024-04-26T20:26:17.330Z,9.00
2024-04-26T20:28:49.764Z,9.00
2024-04-26T20:31:20.716Z,8.90
2024-04-26T20:33:51.109Z,9.00
2024-04-26T20:36:21.223Z,8.90
2024-04-26T20:38:53.927Z,8.80
2024-04-26T20:41:23.955Z,8.80
2024-04-26T20:43:54.005Z,8.80
2024-04-26T20:46:24.198Z,8.80
2024-04-26T20:48:54.541Z,8.80
2024-04-26T20:51:24.738Z,8.80
2024-04-26T20:53:57.495Z,8.80
2024-04-26T20:56:32.444Z,8.70
2024-04-26T20:59:07.635Z,8.70
2024-04-26T21:01:38.283Z,8.60
2024-04-26T21:04:08.563Z,8.60
2024-04-26T21:06:39.186Z,8.60
2024-04-26T21:09:11.993Z,8.60
2024-04-26T21:11:42.556Z,8.50
2024-04-26T21:14:12.608Z,8.50
2024-04-26T21:16:42.650Z,8.50
2024-04-26T21:19:12.714Z,8.50
2024-04-26T21:21:42.771Z,8.50
2024-04-26T21:24:15.571Z,8.50
2024-04-26T21:26:45.643Z,8.50
2024-04-26T21:29:15.758Z,8.50
2024-04-26T21:31:45.833Z,8.40
2024-04-26T21:34:15.886Z,8.40
2024-04-26T21:36:47.255Z,8.30
2024-04-26T21:39:21.232Z,8.40
2024-04-26T21:41:52.373Z,8.30
2024-04-26T21:44:22.409Z,8.30
2024-04-26T21:46:53.136Z,8.30
2024-04-26T21:49:23.510Z,8.30
2024-04-26T21:51:53.962Z,8.20
2024-04-26T21:54:26.645Z,8.20
2024-04-26T21:56:56.637Z,8.20
2024-04-26T21:59:26.694Z,8.20
2024-04-26T22:01:56.965Z,8.20
2024-04-26T22:04:27.071Z,8.20
2024-04-26T22:06:57.109Z,8.10
2024-04-26T22:09:29.962Z,8.10
2024-04-26T22:12:03.426Z,8.10
2024-04-26T22:14:34.009Z,8.10
2024-04-26T22:17:05.617Z,8.10
2024-04-26T22:19:35.952Z,8.00
2024-04-26T22:22:06.029Z,8.00
2024-04-26T22:24:38.683Z,7.90
2024-04-26T22:27:11.014Z,7.90
2024-04-26T22:29:41.022Z,7.90
2024-04-26T22:32:11.212Z,7.90
2024-04-26T22:34:41.375Z,7.90
2024-04-26T22:37:11.407Z,7.90
2024-04-26T22:39:45.704Z,7.80
2024-04-26T22:42:16.355Z,7.80
2024-04-26T22:44:46.827Z,7.80
2024-04-26T22:47:17.064Z,7.80
2024-04-26T22:49:47.165Z,7.70
2024-04-26T22:52:17.542Z,7.80
2024-04-26T22:54:50.189Z,7.70
2024-04-26T22:57:20.302Z,7.70
2024-04-26T22:59:51.124Z,7.70
2024-04-26T23:02:21.291Z,7.70
2024-04-26T23:04:53.684Z,7.70
2024-04-26T23:07:23.760Z,7.60
2024-04-26T23:09:58.262Z,7.60
2024-04-26T23:12:28.834Z,7.60
2024-04-26T23:14:58.944Z,7.60
2024-04-26T23:17:29.063Z,7.50
2024-04-26T23:19:59.350Z,7.50
2024-04-26T23:22:29.640Z,7.50
2024-04-26T23:25:02.343Z,7.40
2024-04-26T23:27:33.033Z,7.40
2024-04-26T23:30:06.018Z,7.40
2024-04-26T23:32:37.143Z,7.40
2024-04-26T23:35:07.888Z,7.40
2024-04-26T23:37:38.161Z,7.40
2024-04-26T23:40:12.247Z,7.30
2024-04-26T23:42:42.764Z,7.30
2024-04-26T23:45:12.983Z,7.30
2024-04-26T23:47:43.094Z,7.30
2024-04-26T23:50:13.511Z,7.20
2024-04-26T23:52:43.732Z,7.20
2024-04-26T23:55:16.612Z,7.20
2024-04-26T23:57:46.702Z,7.20
